Time;durP1;ratioP1;P1;durP2;ratioP2;P2;SDS_P1;SDS_P2;PMS_P1;PMS_P2;Temp;Humidity;BMP_temperature;BMP_pressure;BME280_temperature;BME280_humidity;BME280_pressure;Samples;Min_cycle;Max_cycle;Signal;HPM_P1;HPM_P2
2023/12/17 00:01:04;;;;;;;13.40;8.38;;;;;;;6.65;100.00;101310.09;4954858;29;20027;-83
2023/12/17 00:03:29;;;;;;;15.65;8.88;;;;;;;6.83;100.00;101335.09;4954865;29;20114;-83
2023/12/17 00:05:54;;;;;;;17.52;8.15;;;;;;;6.80;100.00;101304.03;4954987;29;20027;-83
2023/12/17 00:08:21;;;;;;;15.00;8.60;;;;;;;6.74;100.00;101286.78;4954361;29;20030;-82
2023/12/17 00:10:47;;;;;;;19.05;9.20;;;;;;;6.83;100.00;101300.56;4954962;29;20201;-83
2023/12/17 00:13:12;;;;;;;20.45;8.88;;;;;;;6.87;100.00;101313.50;4954501;29;20516;-83
2023/12/17 00:15:38;;;;;;;17.05;9.68;;;;;;;6.68;100.00;101289.38;4954722;29;20023;-82
2023/12/17 00:18:03;;;;;;;15.20;8.68;;;;;;;6.52;100.00;101248.03;4954853;29;20114;-83
2023/12/17 00:20:29;;;;;;;17.67;8.45;;;;;;;6.61;100.00;101266.13;4954718;29;20038;-82
2023/12/17 00:22:55;;;;;;;16.02;8.88;;;;;;;6.53;100.00;101260.13;4954497;29;20019;-83
2023/12/17 00:25:20;;;;;;;22.50;9.00;;;;;;;6.82;100.00;101315.22;4954412;29;20469;-83
2023/12/17 00:27:45;;;;;;;18.73;8.52;;;;;;;6.83;100.00;101323.88;4954719;29;20030;-83
2023/12/17 00:30:11;;;;;;;20.10;9.32;;;;;;;6.65;100.00;101289.41;4954378;29;20034;-83
2023/12/17 00:32:36;;;;;;;16.35;8.93;;;;;;;6.86;100.00;101329.88;4937288;29;20465;-83
2023/12/17 00:35:01;;;;;;;12.93;8.80;;;;;;;6.89;100.00;101332.47;4954577;29;20034;-83
2023/12/17 00:37:27;;;;;;;19.95;9.25;;;;;;;6.81;100.00;101307.47;4954467;29;20046;-83
2023/12/17 00:39:53;;;;;;;19.67;8.38;;;;;;;6.76;100.00;101286.78;4937251;29;20063;-83
2023/12/17 00:42:18;;;;;;;18.92;9.43;;;;;;;6.76;100.00;101289.38;4954140;29;20038;-83
2023/12/17 00:44:44;;;;;;;16.63;8.90;;;;;;;6.95;100.00;101311.72;4954384;29;20031;-83
2023/12/17 00:47:09;;;;;;;21.75;8.70;;;;;;;6.70;100.00;101272.13;4954219;29;20027;-83
2023/12/17 00:49:35;;;;;;;19.33;8.50;;;;;;;6.77;100.00;101275.53;4955166;28;20119;-83
2023/12/17 00:52:00;;;;;;;15.70;8.77;;;;;;;6.92;100.00;101290.16;4958091;29;20095;-83
2023/12/17 00:54:25;;;;;;;13.15;8.05;;;;;;;6.70;100.00;101263.47;4958345;28;20110;-83
2023/12/17 00:56:51;;;;;;;16.92;8.40;;;;;;;6.74;100.00;101271.25;4958255;29;20086;-83
2023/12/17 00:59:16;;;;;;;17.35;8.10;;;;;;;6.90;100.00;101287.56;4958158;29;20059;-83
2023/12/17 01:01:41;;;;;;;15.88;7.93;;;;;;;6.87;100.00;101284.09;4958239;29;20023;-83
2023/12/17 01:04:06;;;;;;;14.35;7.90;;;;;;;6.74;100.00;101260.91;4958234;29;20101;-83
2023/12/17 01:06:32;;;;;;;13.77;7.50;;;;;;;6.74;100.00;101255.72;4958083;29;20488;-83
2023/12/17 01:08:57;;;;;;;17.33;9.43;;;;;;;6.84;100.00;101274.66;4958107;29;20433;-83
2023/12/17 01:11:22;;;;;;;17.88;8.02;;;;;;;6.73;100.00;101251.38;4958030;29;20059;-83
2023/12/17 01:13:48;;;;;;;17.90;8.35;;;;;;;6.71;100.00;101258.31;4957697;29;20472;-82
2023/12/17 01:16:13;;;;;;;14.85;8.10;;;;;;;6.75;100.00;101266.94;4957847;29;20082;-83
2023/12/17 01:18:38;;;;;;;16.13;7.90;;;;;;;6.90;100.00;101291.88;4957930;29;20020;-83
2023/12/17 01:21:05;;;;;;;14.50;7.68;;;;;;;6.95;100.00;101295.28;4957711;29;20114;-83
2023/12/17 01:23:31;;;;;;;15.05;8.27;;;;;;;6.90;100.00;101272.00;4958200;29;20034;-83
2023/12/17 01:25:56;;;;;;;15.23;7.68;;;;;;;6.93;100.00;101281.50;4957857;29;20027;-83
2023/12/17 01:28:21;;;;;;;13.32;7.53;;;;;;;6.88;100.00;101260.81;4940282;29;20038;-83
2023/12/17 01:30:47;;;;;;;12.48;7.10;;;;;;;6.76;100.00;101240.16;4957768;29;20034;-82
2023/12/17 01:33:12;;;;;;;14.00;7.05;;;;;;;6.94;100.00;101278.03;4955978;29;20066;-83
2023/12/17 01:35:38;;;;;;;12.85;7.93;;;;;;;6.70;100.00;101233.28;4957617;29;20035;-83
2023/12/17 01:38:03;;;;;;;16.25;8.48;;;;;;;6.93;100.00;101276.31;4957264;29;20027;-83
2023/12/17 01:40:30;;;;;;;19.33;7.90;;;;;;;6.70;100.00;101238.47;4957317;29;20473;-83
2023/12/17 01:42:56;;;;;;;18.73;8.10;;;;;;;6.94;100.00;101267.69;4957460;29;20038;-83
2023/12/17 01:45:21;;;;;;;13.27;6.97;;;;;;;6.82;100.00;101255.66;4957365;29;20035;-82
2023/12/17 01:47:47;;;;;;;13.23;6.93;;;;;;;6.94;100.00;101284.06;4957458;29;20019;-83
2023/12/17 01:50:13;;;;;;;16.17;7.00;;;;;;;6.83;100.00;101251.34;4956912;29;20047;-83
2023/12/17 01:52:39;;;;;;;17.60;7.75;;;;;;;6.86;100.00;101272.91;4957399;29;20110;-82
2023/12/17 01:55:05;;;;;;;16.20;7.43;;;;;;;6.85;100.00;101253.06;4956741;28;20078;-83
2023/12/17 01:57:31;;;;;;;13.32;6.65;;;;;;;6.72;100.00;101241.91;4957333;29;20027;-83
2023/12/17 01:59:57;;;;;;;12.77;7.30;;;;;;;6.99;100.00;101300.47;4957146;29;20123;-83
2023/12/17 02:02:23;;;;;;;12.50;7.50;;;;;;;6.82;100.00;101263.41;4956982;28;20082;-83
2023/12/17 02:04:49;;;;;;;14.50;8.18;;;;;;;6.82;100.00;101272.91;4957157;29;20122;-83
2023/12/17 02:07:14;;;;;;;12.02;7.35;;;;;;;6.77;100.00;101272.09;4957268;29;20377;-83
2023/12/17 02:09:40;;;;;;;13.55;7.22;;;;;;;6.84;100.00;101273.78;4956683;29;20051;-82
2023/12/17 02:12:06;;;;;;;12.65;7.28;;;;;;;7.03;100.00;101313.38;4956685;29;20548;-82
2023/12/17 02:14:31;;;;;;;15.02;7.78;;;;;;;7.05;100.00;101322.88;4957407;29;20111;-83
2023/12/17 02:16:56;;;;;;;10.68;7.72;;;;;;;6.84;100.00;101277.25;4957648;29;20106;-83
2023/12/17 02:19:22;;;;;;;13.18;8.10;;;;;;;6.91;100.00;101294.47;4957865;29;20074;-83
2023/12/17 02:21:47;;;;;;;14.60;8.63;;;;;;;6.84;100.00;101279.81;4971245;29;20023;-82
2023/12/17 02:24:12;;;;;;;17.02;9.20;;;;;;;7.04;100.00;101322.88;4972368;29;20031;-82
2023/12/17 02:26:41;;;;;;;16.42;7.93;;;;;;;7.04;100.00;101318.59;4969244;29;20134;-83
2023/12/17 02:29:07;;;;;;;16.52;7.85;;;;;;;6.93;100.00;101302.22;4958382;29;20023;-83
2023/12/17 02:31:32;;;;;;;16.13;8.73;;;;;;;6.98;100.00;101298.72;4956457;29;20473;-83
2023/12/17 02:33:58;;;;;;;14.02;8.23;;;;;;;6.90;100.00;101286.69;4956385;29;20369;-82
2023/12/17 02:36:23;;;;;;;12.10;7.60;;;;;;;6.93;100.00;101291.88;4955892;29;20465;-83
2023/12/17 02:38:48;;;;;;;14.57;8.25;;;;;;;6.96;100.00;101297.03;4956424;29;20030;-83
2023/12/17 02:41:14;;;;;;;13.15;8.25;;;;;;;6.85;100.00;101276.38;4955972;29;20095;-83
2023/12/17 02:47:00;;;;;;;13.80;8.07;;;;;;;7.05;100.00;101307.34;4956269;29;20094;-82
2023/12/17 02:49:27;;;;;;;17.00;9.07;;;;;;;7.07;100.00;101303.00;4955927;29;20110;-82
2023/12/17 02:51:53;;;;;;;14.60;8.40;;;;;;;6.99;100.00;101291.81;4955841;29;20066;-82
2023/12/17 02:54:19;;;;;;;14.85;9.35;;;;;;;6.95;100.00;101275.47;4955695;28;20055;-83
2023/12/17 02:56:44;;;;;;;16.52;8.65;;;;;;;6.90;100.00;101260.78;4956091;29;20039;-83
2023/12/17 02:59:11;;;;;;;14.32;8.60;;;;;;;6.75;100.00;101243.63;4938593;29;20476;-83
2023/12/17 03:01:39;;;;;;;12.95;7.75;;;;;;;6.87;100.00;101276.34;4956203;29;20031;-83
2023/12/17 03:04:04;;;;;;;12.88;8.85;;;;;;;7.00;100.00;101284.06;4955601;29;20042;-83
2023/12/17 03:06:30;;;;;;;13.85;7.95;;;;;;;6.85;100.00;101252.19;4955662;29;20024;-83
2023/12/17 03:08:55;;;;;;;14.48;7.85;;;;;;;7.02;100.00;101278.00;4955735;29;20412;-83
2023/12/17 03:11:21;;;;;;;12.65;8.85;;;;;;;6.73;100.00;101224.63;4955647;29;20047;-83
2023/12/17 03:13:46;;;;;;;13.98;8.55;;;;;;;7.06;100.00;101280.56;4954811;28;20469;-83
2023/12/17 03:16:11;;;;;;;14.38;8.48;;;;;;;6.83;100.00;101244.44;4895799;29;20046;-83
2023/12/17 03:18:37;;;;;;;13.40;7.82;;;;;;;7.02;100.00;101290.94;4896127;29;20044;-83
2023/12/17 03:21:05;;;;;;;8.25;6.97;;;;;;;6.91;100.00;101265.97;4880377;29;20483;-83
2023/12/17 03:23:30;;;;;;;11.45;8.20;;;;;;;6.99;100.00;101282.34;4895544;29;20028;-83
2023/12/17 03:25:55;;;;;;;11.75;7.65;;;;;;;6.93;100.00;101258.19;4895970;29;20547;-83
2023/12/17 03:28:21;;;;;;;10.20;7.30;;;;;;;6.88;100.00;101249.59;4895698;29;20376;-83
2023/12/17 03:30:46;;;;;;;8.80;7.00;;;;;;;7.06;100.00;101288.34;4895826;29;20048;-83
2023/12/17 03:33:12;;;;;;;10.23;7.75;;;;;;;6.80;100.00;101244.47;4895876;29;20044;-83
2023/12/17 03:35:37;;;;;;;16.30;8.63;;;;;;;7.00;100.00;101276.28;4880007;29;20475;-82
2023/12/17 03:38:03;;;;;;;11.95;7.68;;;;;;;7.06;100.00;101297.84;4880116;29;20240;-82
2023/12/17 03:40:29;;;;;;;13.43;8.13;;;;;;;7.05;100.00;101296.13;4895737;29;20131;-83
2023/12/17 03:59:42;;;;;;;14.00;7.43;;;;;;;6.97;100.00;101285.81;4895541;29;20526;-82
2023/12/17 04:02:07;;;;;;;13.43;8.63;;;;;;;6.94;100.00;101294.44;4895327;29;20032;-83
2023/12/17 04:04:33;;;;;;;13.57;8.18;;;;;;;6.93;100.00;101291.88;4895137;29;20037;-83
2023/12/17 04:06:59;;;;;;;13.68;8.05;;;;;;;6.84;100.00;101274.66;4895261;29;20032;-83
2023/12/17 04:09:24;;;;;;;15.73;8.48;;;;;;;6.99;100.00;101284.03;4894772;29;20506;-83
2023/12/17 04:11:49;;;;;;;11.27;7.30;;;;;;;7.05;100.00;101289.22;4895299;29;20116;-83
2023/12/17 04:17:36;;;;;;;15.35;7.55;;;;;;;7.00;100.00;101278.03;4954843;29;20041;-83
2023/12/17 04:20:02;;;;;;;13.00;7.57;;;;;;;7.04;100.00;101287.50;4954813;29;20023;-82
2023/12/17 04:29:10;;;;;;;12.55;7.47;;;;;;;7.06;100.00;101290.94;4955051;29;20469;-83
2023/12/17 04:31:36;;;;;;;11.40;7.72;;;;;;;7.00;100.00;101281.47;4954840;29;20110;-83
2023/12/17 04:34:01;;;;;;;10.38;7.63;;;;;;;6.73;100.00;101251.38;4954999;29;20023;-83
2023/12/17 04:36:26;;;;;;;10.57;7.38;;;;;;;6.74;100.00;101249.66;4954410;29;20027;-83
2023/12/17 04:38:51;;;;;;;11.50;6.80;;;;;;;6.83;100.00;101265.16;4937407;29;20055;-83
2023/12/17 04:41:17;;;;;;;11.07;7.72;;;;;;;6.83;100.00;101265.16;4952881;29;20090;-83
2023/12/17 04:43:43;;;;;;;9.95;7.50;;;;;;;6.83;100.00;101260.00;4954478;29;20031;-83
2023/12/17 04:46:09;;;;;;;11.57;7.13;;;;;;;7.05;100.00;101296.13;4954458;29;20027;-82
2023/12/17 04:48:34;;;;;;;7.72;6.63;;;;;;;7.07;100.00;101295.22;4954169;29;20027;-83
2023/12/17 04:50:59;;;;;;;10.85;6.72;;;;;;;6.92;100.00;101269.44;4954359;29;20110;-83
2023/12/17 04:53:25;;;;;;;11.77;7.25;;;;;;;6.88;100.00;101268.59;4954148;29;20027;-83
2023/12/17 04:55:50;;;;;;;8.63;6.60;;;;;;;7.04;100.00;101291.78;4954354;28;20028;-83
2023/12/17 04:58:15;;;;;;;12.52;7.38;;;;;;;6.81;100.00;101247.91;4954100;29;20028;-83
2023/12/17 05:00:41;;;;;;;12.20;7.40;;;;;;;6.96;100.00;101277.16;4954297;29;20472;-82
2023/12/17 05:03:06;;;;;;;13.18;7.22;;;;;;;6.97;100.00;101284.06;4954120;29;20075;-83
2023/12/17 05:05:31;;;;;;;9.15;6.72;;;;;;;7.04;100.00;101300.44;4953777;29;20024;-83
2023/12/17 05:07:57;;;;;;;10.70;7.55;;;;;;;6.83;100.00;101270.34;4954179;29;20055;-82
2023/12/17 05:10:22;;;;;;;12.77;7.45;;;;;;;6.97;100.00;101286.66;4953893;29;20397;-83
2023/12/17 05:22:53;;;;;;;12.75;7.50;;;;;;;7.09;100.00;101319.41;4953906;29;20072;-83
2023/12/17 05:25:18;;;;;;;11.90;7.53;;;;;;;6.93;100.00;101290.13;4953895;29;20050;-83
2023/12/17 05:27:44;;;;;;;12.23;7.70;;;;;;;6.94;100.00;101296.16;4954030;29;20023;-83
2023/12/17 05:30:09;;;;;;;12.63;7.80;;;;;;;6.93;100.00;101303.09;4954287;29;20043;-83
2023/12/17 05:32:35;;;;;;;14.35;8.10;;;;;;;7.01;100.00;101313.41;4953794;29;20528;-83
2023/12/17 05:35:00;;;;;;;11.70;8.18;;;;;;;6.81;100.00;101277.25;4954209;28;20027;-83
2023/12/17 05:37:25;;;;;;;15.70;8.52;;;;;;;6.84;100.00;101286.75;4957137;29;20083;-82
2023/12/17 05:39:51;;;;;;;12.38;7.88;;;;;;;6.86;100.00;101290.16;4957503;29;20035;-83
2023/12/17 05:42:16;;;;;;;10.23;7.22;;;;;;;7.02;100.00;101311.69;4957439;29;20024;-83
2023/12/17 05:44:41;;;;;;;12.10;7.28;;;;;;;6.90;100.00;101284.97;4955970;29;20081;-83
2023/12/17 05:47:07;;;;;;;11.77;6.75;;;;;;;6.88;100.00;101293.63;4957455;29;20027;-83
2023/12/17 05:49:37;;;;;;;11.50;7.80;;;;;;;7.00;100.00;101325.50;4957081;29;20059;-83
2023/12/17 05:52:02;;;;;;;10.63;7.55;;;;;;;7.07;100.00;101326.31;4957330;29;20500;-83
2023/12/17 05:54:27;;;;;;;10.80;6.90;;;;;;;6.95;100.00;101309.13;4957295;28;20035;-82
2023/12/17 05:56:53;;;;;;;11.68;7.38;;;;;;;6.91;100.00;101298.78;4939907;29;20031;-82
2023/12/17 05:59:18;;;;;;;10.30;6.90;;;;;;;6.68;100.00;101257.47;4957158;29;20027;-83
2023/12/17 06:01:43;;;;;;;18.73;8.95;;;;;;;6.83;100.00;101283.28;4956694;29;20125;-82
2023/12/17 06:04:09;;;;;;;14.32;8.20;;;;;;;6.94;100.00;101298.75;4957007;29;20039;-83
2023/12/17 06:06:34;;;;;;;13.43;7.65;;;;;;;6.99;100.00;101313.44;4956750;29;20039;-82
2023/12/17 06:08:59;;;;;;;12.25;6.88;;;;;;;6.97;100.00;101306.53;4956545;29;20465;-83
2023/12/17 06:11:25;;;;;;;8.18;6.53;;;;;;;7.02;100.00;101316.84;4956663;29;20051;-83
2023/12/17 06:13:50;;;;;;;14.68;8.13;;;;;;;6.80;100.00;101275.53;4956875;29;20019;-83
2023/12/17 06:16:15;;;;;;;11.48;6.93;;;;;;;6.88;100.00;101286.72;4956828;29;20490;-83
2023/12/17 06:18:41;;;;;;;11.80;7.40;;;;;;;6.98;100.00;101310.81;4956501;29;20019;-83
2023/12/17 06:21:06;;;;;;;11.52;7.15;;;;;;;6.84;100.00;101286.75;4956718;29;20473;-83
2023/12/17 06:23:32;;;;;;;11.25;6.85;;;;;;;7.02;100.00;101322.91;4956639;29;20023;-83
2023/12/17 06:25:58;;;;;;;9.32;6.72;;;;;;;6.88;100.00;101306.56;4956595;29;20098;-83
2023/12/17 06:28:24;;;;;;;10.18;6.50;;;;;;;6.79;100.00;101285.91;4956349;29;20447;-83
2023/12/17 06:30:50;;;;;;;9.43;6.55;;;;;;;6.84;100.00;101299.69;4956512;29;20028;-83
2023/12/17 06:33:15;;;;;;;10.45;7.05;;;;;;;6.77;100.00;101296.25;4956389;29;20070;-83
2023/12/17 06:35:40;;;;;;;13.27;8.00;;;;;;;6.83;100.00;101301.41;4956201;29;20591;-83
2023/12/17 06:38:06;;;;;;;11.98;6.93;;;;;;;6.87;100.00;101317.78;4956379;29;20030;-83
2023/12/17 06:40:32;;;;;;;13.65;8.25;;;;;;;6.92;100.00;101316.06;4956285;29;20038;-82
2023/12/17 06:42:57;;;;;;;15.60;9.75;;;;;;;6.84;100.00;101312.63;4956234;29;20023;-83
2023/12/17 06:45:23;;;;;;;18.13;10.77;;;;;;;7.02;100.00;101343.63;4955985;29;20031;-83
2023/12/17 06:47:48;;;;;;;21.30;12.63;;;;;;;6.78;100.00;101297.13;4937896;29;20027;-83
2023/12/17 06:50:14;;;;;;;17.42;9.68;;;;;;;6.91;100.00;101325.56;4956451;29;20039;-83
2023/12/17 06:52:39;;;;;;;14.73;8.00;;;;;;;6.90;100.00;101328.13;4955895;29;20031;-83
2023/12/17 06:55:06;;;;;;;15.52;7.93;;;;;;;7.03;100.00;101337.56;4956290;28;20488;-82
2023/12/17 06:57:31;;;;;;;11.48;7.20;;;;;;;7.02;100.00;101332.41;4955886;29;20033;-82
2023/12/17 06:59:57;;;;;;;11.90;6.57;;;;;;;6.98;100.00;101329.81;4938965;29;20027;-83
2023/12/17 07:02:22;;;;;;;14.98;8.38;;;;;;;6.92;100.00;101327.28;4955965;29;20027;-82
2023/12/17 07:04:50;;;;;;;17.20;8.93;;;;;;;7.03;100.00;101342.75;4955995;29;20038;-83
2023/12/17 07:07:16;;;;;;;16.95;8.60;;;;;;;6.88;100.00;101322.97;4956104;29;20043;-82
2023/12/17 07:09:41;;;;;;;13.50;7.78;;;;;;;6.80;100.00;101316.09;4955464;29;20146;-82
2023/12/17 07:12:08;;;;;;;19.52;9.93;;;;;;;6.85;100.00;101337.66;4938551;29;20069;-82
2023/12/17 07:14:33;;;;;;;15.35;9.60;;;;;;;6.85;100.00;101324.72;4955392;29;20127;-82
2023/12/17 07:16:58;;;;;;;18.60;9.35;;;;;;;6.88;100.00;101335.06;4955644;29;20048;-83
2023/12/17 07:19:24;;;;;;;15.30;9.82;;;;;;;6.64;100.00;101294.59;4955632;29;20392;-82
2023/12/17 07:21:49;;;;;;;17.48;10.63;;;;;;;6.69;100.00;101305.78;4955325;29;20484;-82
2023/12/17 07:24:14;;;;;;;16.42;9.63;;;;;;;6.84;100.00;101344.56;4955444;29;20027;-82
2023/12/17 07:26:40;;;;;;;14.23;7.93;;;;;;;6.93;100.00;101356.63;4955303;29;20094;-83
2023/12/17 07:29:05;;;;;;;12.32;7.13;;;;;;;6.90;100.00;101341.94;4955140;29;20031;-82
2023/12/17 07:31:30;;;;;;;13.23;7.78;;;;;;;6.81;100.00;101335.94;4955158;29;20027;-82
2023/12/17 07:33:56;;;;;;;12.50;7.53;;;;;;;6.84;100.00;101331.63;4955137;29;20461;-82
2023/12/17 07:36:21;;;;;;;10.40;6.80;;;;;;;7.00;100.00;101364.38;4955293;29;20027;-82
2023/12/17 07:38:47;;;;;;;11.50;6.68;;;;;;;7.03;100.00;101367.78;4955052;29;20106;-82
2023/12/17 07:41:12;;;;;;;9.80;6.82;;;;;;;6.90;100.00;101347.13;4955265;29;20086;-83
2023/12/17 07:43:38;;;;;;;14.32;6.88;;;;;;;6.85;100.00;101325.56;4954866;29;20034;-82
2023/12/17 07:46:03;;;;;;;10.52;6.28;;;;;;;7.09;100.00;101354.84;4955238;29;20384;-82
2023/12/17 07:48:28;;;;;;;11.10;6.50;;;;;;;6.97;100.00;101348.81;4954921;29;20030;-82
2023/12/17 07:50:54;;;;;;;12.35;6.30;;;;;;;6.96;100.00;101347.13;4937726;29;20034;-82
2023/12/17 07:53:20;;;;;;;12.98;6.70;;;;;;;6.93;100.00;101346.25;4955101;29;20122;-83
2023/12/17 07:55:45;;;;;;;12.93;6.75;;;;;;;6.89;100.00;101327.28;4954825;28;20050;-83
2023/12/17 07:58:10;;;;;;;12.85;7.38;;;;;;;6.93;100.00;101341.94;4955088;28;20058;-82
2023/12/17 08:00:36;;;;;;;13.02;7.63;;;;;;;6.97;100.00;101343.66;4954355;29;20037;-83
2023/12/17 08:03:01;;;;;;;13.57;7.32;;;;;;;7.05;100.00;101372.13;4955053;29;20469;-82
2023/12/17 08:05:26;;;;;;;16.00;8.90;;;;;;;6.89;100.00;101339.38;4955120;29;20034;-83
2023/12/17 08:07:52;;;;;;;17.45;8.98;;;;;;;6.87;100.00;101336.81;4955243;29;20362;-83
2023/12/17 08:10:20;;;;;;;14.75;7.90;;;;;;;6.91;100.00;101356.63;4955856;29;20496;-83
2023/12/17 08:12:46;;;;;;;11.82;8.23;;;;;;;6.85;100.00;101354.06;4950003;29;20480;-82
2023/12/17 08:15:12;;;;;;;15.82;6.88;;;;;;;6.83;100.00;101350.63;4955103;29;20114;-83
2023/12/17 08:17:38;;;;;;;13.27;8.27;;;;;;;6.99;100.00;101378.19;4954924;29;20034;-84
2023/12/17 08:20:03;;;;;;;25.65;15.68;;;;;;;6.85;100.00;101361.84;4962046;29;20031;-83
2023/12/17 08:22:29;;;;;;;14.55;10.60;;;;;;;6.85;100.00;101353.19;4966795;29;20023;-83
2023/12/17 08:24:54;;;;;;;13.65;10.95;;;;;;;6.98;100.00;101373.00;4963035;29;20031;-81
2023/12/17 08:27:19;;;;;;;16.25;11.73;;;;;;;6.88;100.00;101354.06;4959728;29;20027;-83
2023/12/17 08:29:47;;;;;;;15.20;9.30;;;;;;;6.89;100.00;101371.31;4954519;29;20027;-83
2023/12/17 08:32:13;;;;;;;14.57;11.15;;;;;;;7.04;100.00;101385.94;4954563;29;20106;-83
2023/12/17 08:34:39;;;;;;;13.38;8.32;;;;;;;6.96;100.00;101378.19;4954421;29;20032;-84
2023/12/17 08:37:04;;;;;;;13.90;8.60;;;;;;;7.05;100.00;101384.22;4954929;29;20083;-85
2023/12/17 08:39:33;;;;;;;12.43;8.32;;;;;;;6.95;100.00;101360.94;4937306;29;20027;-85
2023/12/17 08:41:59;;;;;;;13.50;10.55;;;;;;;6.88;100.00;101359.25;4955444;29;20473;-84
2023/12/17 08:44:25;;;;;;;13.75;8.90;;;;;;;6.98;100.00;101375.59;4953849;29;20035;-84
2023/12/17 08:46:52;;;;;;;12.85;7.35;;;;;;;6.90;100.00;101354.03;4954224;29;20034;-86
2023/12/17 08:49:17;;;;;;;13.20;8.50;;;;;;;6.84;100.00;101342.00;4954364;28;20036;-85
2023/12/17 08:51:43;;;;;;;14.85;7.75;;;;;;;6.85;100.00;101348.03;4954184;28;20045;-85
2023/12/17 08:54:12;;;;;;;13.13;8.13;;;;;;;7.01;100.00;101375.59;4953975;28;20042;-83
2023/12/17 08:56:38;;;;;;;14.50;8.98;;;;;;;6.92;100.00;101360.94;4954095;28;20023;-83
2023/12/17 08:59:04;;;;;;;14.85;10.27;;;;;;;6.93;100.00;101366.97;4954269;28;20047;-83
2023/12/17 09:01:29;;;;;;;15.15;11.45;;;;;;;6.87;100.00;101351.44;4953879;28;20069;-82
2023/12/17 09:03:54;;;;;;;13.70;10.05;;;;;;;7.02;100.00;101385.06;4954030;29;20118;-83
2023/12/17 09:06:20;;;;;;;14.98;10.13;;;;;;;6.82;100.00;101338.53;4954225;28;20098;-83
2023/12/17 09:08:45;;;;;;;17.15;11.20;;;;;;;7.01;100.00;101354.88;4953946;28;20071;-85
2023/12/17 09:11:11;;;;;;;14.88;9.15;;;;;;;6.99;100.00;101339.34;4955837;28;20039;-84
2023/12/17 09:13:37;;;;;;;15.60;10.43;;;;;;;6.99;100.00;101344.53;4957984;29;20035;-85
2023/12/17 09:16:03;;;;;;;19.90;12.60;;;;;;;6.97;100.00;101333.28;4960502;28;20050;-84
2023/12/17 09:18:28;;;;;;;16.83;10.20;;;;;;;7.12;100.00;101360.88;4972432;28;20023;-84
2023/12/17 09:20:53;;;;;;;20.55;12.70;;;;;;;7.14;100.00;101361.69;4958302;28;20182;-84
2023/12/17 09:23:19;;;;;;;16.30;11.68;;;;;;;7.17;100.00;101369.47;4955959;29;20384;-84
2023/12/17 09:25:44;;;;;;;17.05;12.55;;;;;;;7.17;100.00;101366.03;4957572;28;20090;-87
2023/12/17 09:28:10;;;;;;;18.05;11.73;;;;;;;7.21;100.00;101372.91;4956466;29;20031;-87
2023/12/17 09:30:35;;;;;;;19.50;11.50;;;;;;;7.26;100.00;101386.69;4956594;28;20040;-85
2023/12/17 09:33:00;;;;;;;13.48;10.70;;;;;;;6.97;100.00;101322.06;4957418;29;20023;-86
2023/12/17 09:35:25;;;;;;;17.77;12.70;;;;;;;7.25;100.00;101378.06;4970079;28;20031;-86
2023/12/17 09:37:51;;;;;;;19.83;12.43;;;;;;;7.25;100.00;101387.56;4935166;29;20039;-88
2023/12/17 09:40:16;;;;;;;21.40;15.77;;;;;;;7.23;100.00;101374.59;4935540;29;20390;-85
2023/12/17 09:42:48;;;;;;;23.60;18.10;;;;;;;7.31;100.00;101384.94;4935223;29;20146;-84
2023/12/17 09:45:14;;;;;;;25.90;16.88;;;;;;;7.32;100.00;101380.59;4935543;29;20142;-84
2023/12/17 09:47:41;;;;;;;19.58;12.77;;;;;;;7.28;100.00;101384.94;4935317;29;20119;-84
2023/12/17 09:50:09;;;;;;;46.88;30.33;;;;;;;7.12;100.00;101359.97;4935413;29;20035;-84
2023/12/17 09:52:40;;;;;;;34.90;22.20;;;;;;;7.25;100.00;101383.25;4935158;29;20405;-84
2023/12/17 09:55:05;;;;;;;16.90;11.23;;;;;;;7.13;100.00;101359.13;4933681;29;20059;-84
2023/12/17 09:57:32;;;;;;;24.83;17.10;;;;;;;7.15;100.00;101362.56;4934258;29;20148;-84
2023/12/17 09:59:57;;;;;;;20.00;15.40;;;;;;;6.95;100.00;101329.84;4935157;29;20059;-86
2023/12/17 10:02:22;;;;;;;23.60;19.25;;;;;;;6.97;100.00;101330.69;4935117;29;20070;-86
2023/12/17 10:04:48;;;;;;;31.30;21.25;;;;;;;7.04;100.00;101323.78;4934965;29;20059;-85
2023/12/17 10:07:13;;;;;;;32.63;22.00;;;;;;;7.17;100.00;101348.72;4935137;29;20167;-84
2023/12/17 10:09:38;;;;;;;19.60;14.23;;;;;;;7.07;100.00;101322.88;4952551;29;20047;-84
2023/12/17 10:12:05;;;;;;;19.85;16.45;;;;;;;7.01;100.00;101318.59;4939255;29;20053;-84
2023/12/17 10:14:30;;;;;;;16.67;13.05;;;;;;;7.21;100.00;101349.59;4939457;29;20031;-84
2023/12/17 10:16:57;;;;;;;18.98;14.32;;;;;;;7.21;100.00;101349.59;4956504;29;20424;-85
2023/12/17 10:19:22;;;;;;;22.60;16.75;;;;;;;7.29;100.00;101358.19;4956717;29;20023;-84
2023/12/17 10:21:48;;;;;;;21.75;14.68;;;;;;;7.13;100.00;101321.13;4955619;28;20094;-84
2023/12/17 10:24:13;;;;;;;23.10;18.48;;;;;;;7.24;100.00;101345.22;4955810;29;20551;-84
2023/12/17 10:26:44;;;;;;;25.45;17.98;;;;;;;7.33;100.00;101338.25;4953713;29;20115;-84
2023/12/17 10:29:16;;;;;;;16.98;13.68;;;;;;;7.28;100.00;101338.28;4955199;29;20038;-85
2023/12/17 10:31:44;;;;;;;16.75;12.57;;;;;;;7.07;100.00;101300.41;4968938;28;20050;-86
2023/12/17 10:34:19;;;;;;;19.35;12.50;;;;;;;7.32;100.00;101339.13;4952581;29;20047;-85
2023/12/17 10:36:49;;;;;;;16.50;12.02;;;;;;;7.13;100.00;101312.50;4930564;29;20395;-88
2023/12/17 10:39:19;;;;;;;20.73;15.20;;;;;;;7.33;100.00;101339.16;4934832;29;20043;-84
2023/12/17 10:41:46;;;;;;;19.45;12.93;;;;;;;7.28;100.00;101320.16;4934307;29;20430;-84
2023/12/17 10:44:13;;;;;;;21.80;14.55;;;;;;;7.31;100.00;101322.72;4934560;29;20401;-86
2023/12/17 10:46:44;;;;;;;22.27;15.32;;;;;;;7.29;100.00;101310.63;4896246;29;20072;-87
2023/12/17 10:49:10;;;;;;;27.57;18.33;;;;;;;7.00;100.00;101280.63;4893927;29;20053;-86
2023/12/17 10:51:39;;;;;;;34.13;23.45;;;;;;;7.17;100.00;101319.38;4896253;29;20501;-85
2023/12/17 10:54:11;;;;;;;17.42;12.20;;;;;;;7.26;100.00;101334.88;4896561;29;20375;-85
2023/12/17 10:56:39;;;;;;;;;;;;;;;7.24;100.00;101324.50;4896677;29;20048;-87
2023/12/17 10:59:10;;;;;;;17.60;12.23;;;;;;;7.20;100.00;101327.09;4895211;29;20031;-88
2023/12/17 11:01:37;;;;;;;21.90;14.73;;;;;;;6.97;100.00;101285.81;4893715;29;20055;-86
2023/12/17 11:04:06;;;;;;;26.58;15.52;;;;;;;7.05;100.00;101303.91;4896177;29;20774;-84
2023/12/17 11:06:31;;;;;;;18.25;11.45;;;;;;;7.01;100.00;101290.09;4896108;29;20040;-84
2023/12/17 11:08:57;;;;;;;18.17;11.30;;;;;;;7.26;100.00;101342.63;4895841;29;20044;-85
2023/12/17 11:11:22;;;;;;;16.00;11.60;;;;;;;7.04;100.00;101303.03;4895964;29;20063;-85
2023/12/17 11:13:51;;;;;;;15.43;10.82;;;;;;;7.32;100.00;101336.53;4895903;29;20487;-84
2023/12/17 11:16:21;;;;;;;18.65;11.57;;;;;;;7.27;100.00;101321.03;4895785;29;20432;-85
2023/12/17 11:18:46;;;;;;;16.55;12.02;;;;;;;6.95;100.00;101278.06;4950747;29;20429;-85
2023/12/17 11:21:13;;;;;;;16.45;11.32;;;;;;;7.21;100.00;101326.25;4952973;29;20038;-86
2023/12/17 11:23:40;;;;;;;20.33;12.55;;;;;;;7.21;100.00;101316.75;4936956;29;20504;-88
2023/12/17 11:26:06;;;;;;;21.88;14.98;;;;;;;7.16;100.00;101308.16;4955450;29;20487;-86
2023/12/17 11:28:32;;;;;;;18.23;12.27;;;;;;;6.98;100.00;101270.25;4938041;29;20075;-85
2023/12/17 11:30:58;;;;;;;14.50;10.63;;;;;;;7.37;100.00;101327.00;4953830;29;20102;-85
2023/12/17 11:33:25;;;;;;;15.15;10.18;;;;;;;7.14;100.00;101283.97;4954763;28;20035;-87
2023/12/17 11:35:51;;;;;;;15.93;12.73;;;;;;;7.06;100.00;101269.34;4954965;29;20035;-86
2023/12/17 11:38:16;;;;;;;18.65;14.30;;;;;;;7.21;100.00;101282.22;4937898;29;20487;-86
2023/12/17 11:40:42;;;;;;;19.00;15.23;;;;;;;7.22;100.00;101287.38;4954629;29;20035;-85
2023/12/17 11:43:07;;;;;;;25.65;20.60;;;;;;;7.25;100.00;101287.34;4954998;29;20028;-87
2023/12/17 11:45:47;;;;;;;20.98;17.00;;;;;;;7.45;100.00;101300.16;4953787;29;20035;-85
2023/12/17 11:48:19;;;;;;;13.02;9.30;;;;;;;7.27;100.00;101270.94;4955051;29;20053;-86
2023/12/17 11:50:46;;;;;;;;;;;;;;;7.48;100.00;101307.06;4938057;29;20041;-86